Time;durP1;ratioP1;P1;durP2;ratioP2;P2;SDS_P1;SDS_P2;PMS_P1;PMS_P2;Temp;Humidity;BMP_temperature;BMP_pressure;BME280_temperature;BME280_humidity;BME280_pressure;Samples;Min_cycle;Max_cycle;Signal;HPM_P1;HPM_P2
2023/05/11 02:14:41;;;;;;;11.95;4.70;;;;;;;;;;5000397;27;20444;-80
2023/05/11 02:17:08;;;;;;;11.02;4.50;;;;;;;;;;4912018;28;20076;-80
2023/05/11 02:19:36;;;;;;;9.98;4.35;;;;;;;;;;4931114;28;20039;-75
2023/05/11 02:22:04;;;;;;;12.48;4.88;;;;;;;;;;4918771;28;20048;-76
2023/05/11 02:24:31;;;;;;;10.50;3.83;;;;;;;;;;4904638;28;20055;-72
2023/05/11 02:26:58;;;;;;;10.38;4.88;;;;;;;;;;4901283;28;20051;-77
2023/05/11 02:29:25;;;;;;;10.35;4.07;;;;;;;;;;4935627;28;20153;-69
2023/05/11 02:31:56;;;;;;;10.38;4.53;;;;;;;;;;4928588;28;20115;-77
2023/05/11 02:34:24;;;;;;;12.43;5.03;;;;;;;;;;4927111;28;20047;-76
2023/05/11 02:36:53;;;;;;;10.90;4.57;;;;;;;;;;4902754;28;20060;-76
2023/05/11 02:39:21;;;;;;;10.60;4.63;;;;;;;;;;4900829;28;20043;-77
2023/05/11 02:41:50;;;;;;;16.58;5.20;;;;;;;;;;4949507;28;20057;-73
2023/05/11 02:44:20;;;;;;;10.55;4.20;;;;;;;;;;4950449;28;20065;-83
2023/05/11 02:46:48;;;;;;;10.13;4.57;;;;;;;;;;4950048;28;20088;-83
2023/05/11 02:49:18;;;;;;;10.52;4.22;;;;;;;;;;5001164;28;20060;-81
2023/05/11 02:51:46;;;;;;;10.80;4.22;;;;;;;;;;5005398;28;20053;-71
2023/05/11 02:54:13;;;;;;;11.57;4.53;;;;;;;;;;4995365;28;20053;-76
2023/05/11 02:56:42;;;;;;;10.65;4.60;;;;;;;;;;4977457;28;20053;-80
2023/05/11 02:59:09;;;;;;;15.40;4.82;;;;;;;;;;4989876;28;20057;-74
2023/05/11 03:01:36;;;;;;;11.45;4.75;;;;;;;;;;5000140;28;20053;-74
2023/05/11 03:04:04;;;;;;;12.23;5.05;;;;;;;;;;5004619;28;20046;-76
2023/05/11 03:06:32;;;;;;;11.10;4.80;;;;;;;;;;4958371;28;20054;-75
2023/05/11 03:09:00;;;;;;;11.43;4.72;;;;;;;;;;4959977;28;20059;-77
2023/05/11 03:11:26;;;;;;;10.48;4.65;;;;;;;;;;5005316;28;20059;-77
2023/05/11 03:13:53;;;;;;;12.48;4.80;;;;;;;;;;5005031;28;20069;-73
2023/05/11 03:16:21;;;;;;;11.00;5.10;;;;;;;;;;4996055;28;20068;-72
2023/05/11 03:18:48;;;;;;;10.77;4.63;;;;;;;;;;4988461;28;20072;-71
2023/05/11 03:21:16;;;;;;;10.60;5.18;;;;;;;;;;4999530;28;20315;-78
2023/05/11 03:23:45;;;;;;;11.60;5.03;;;;;;;;;;5015271;28;20041;-76
2023/05/11 03:26:12;;;;;;;10.57;4.53;;;;;;;;;;4996498;28;20088;-75
2023/05/11 03:28:42;;;;;;;13.77;4.68;;;;;;;;;;4994294;28;20053;-77
2023/05/11 03:31:09;;;;;;;11.02;4.45;;;;;;;;;;4988507;28;20171;-69
2023/05/11 03:33:36;;;;;;;10.32;4.70;;;;;;;;;;5002688;28;20049;-76
2023/05/11 03:36:03;;;;;;;13.68;5.70;;;;;;;;;;4965455;28;20070;-73
2023/05/11 03:38:30;;;;;;;13.73;4.95;;;;;;;;;;4949313;28;20059;-72
2023/05/11 03:41:01;;;;;;;12.85;5.30;;;;;;;;;;4954108;28;20071;-76
2023/05/11 03:43:30;;;;;;;10.55;4.88;;;;;;;;;;5015367;28;20061;-77
2023/05/11 03:45:57;;;;;;;12.13;5.10;;;;;;;;;;5005959;28;20041;-75
2023/05/11 03:48:24;;;;;;;11.98;5.13;;;;;;;;;;5010813;28;20148;-71
2023/05/11 03:50:52;;;;;;;12.23;4.97;;;;;;;;;;5031551;28;20136;-72
2023/05/11 03:53:19;;;;;;;11.95;5.13;;;;;;;;;;5004400;28;20068;-75
2023/05/11 03:55:46;;;;;;;11.73;4.82;;;;;;;;;;5003989;28;20148;-79
2023/05/11 03:58:15;;;;;;;12.50;4.68;;;;;;;;;;4955929;28;20072;-75
2023/05/11 04:00:43;;;;;;;12.05;4.95;;;;;;;;;;4939630;28;20101;-80
2023/05/11 04:03:11;;;;;;;13.70;4.90;;;;;;;;;;4975047;28;20065;-74
2023/05/11 04:05:37;;;;;;;10.90;4.88;;;;;;;;;;5006963;28;20068;-72
2023/05/11 04:08:04;;;;;;;14.00;5.10;;;;;;;;;;5003589;28;20060;-83
2023/05/11 04:10:31;;;;;;;11.10;5.10;;;;;;;;;;4991598;28;20244;-72
2023/05/11 04:12:58;;;;;;;10.65;4.57;;;;;;;;;;5006463;28;20058;-76
2023/05/11 04:15:27;;;;;;;15.23;5.63;;;;;;;;;;5016244;28;20049;-77
2023/05/11 04:17:54;;;;;;;11.65;5.18;;;;;;;;;;4970390;28;20045;-74
2023/05/11 04:20:23;;;;;;;12.27;4.90;;;;;;;;;;4976625;28;20063;-82
2023/05/11 04:22:53;;;;;;;11.52;5.20;;;;;;;;;;4973402;28;20057;-73
2023/05/11 04:25:20;;;;;;;12.50;5.18;;;;;;;;;;4977604;28;20046;-73
2023/05/11 04:27:47;;;;;;;12.45;5.25;;;;;;;;;;4932539;28;20055;-79
2023/05/11 04:30:14;;;;;;;12.27;5.47;;;;;;;;;;4922305;28;20062;-73
2023/05/11 04:32:42;;;;;;;12.82;5.53;;;;;;;;;;4972872;28;20041;-77
2023/05/11 04:35:09;;;;;;;13.70;5.22;;;;;;;;;;4976820;28;20081;-75
2023/05/11 04:37:35;;;;;;;13.38;5.20;;;;;;;;;;4960087;28;20042;-77
2023/05/11 04:40:03;;;;;;;14.45;5.20;;;;;;;;;;4968574;28;20053;-77
2023/05/11 04:42:30;;;;;;;13.75;5.68;;;;;;;;;;4972156;28;20065;-73
2023/05/11 04:44:57;;;;;;;13.52;5.60;;;;;;;;;;4997670;28;20148;-71
2023/05/11 04:47:26;;;;;;;14.82;5.95;;;;;;;;;;4962885;28;20069;-75
2023/05/11 04:49:57;;;;;;;13.23;5.28;;;;;;;;;;4945402;28;20054;-76
2023/05/11 04:52:27;;;;;;;11.82;5.28;;;;;;;;;;4949924;28;20054;-79
2023/05/11 04:55:01;;;;;;;12.77;5.03;;;;;;;;;;4954014;28;20054;-80
2023/05/11 05:02:33;;;;;;;19.05;6.00;;;;;;;;;;4922515;28;20101;-77
2023/05/11 05:05:01;;;;;;;13.75;5.85;;;;;;;;;;4941083;28;20054;-71
2023/05/11 05:07:33;;;;;;;14.23;5.82;;;;;;;;;;4931799;28;20061;-72
2023/05/11 05:10:00;;;;;;;12.85;5.53;;;;;;;;;;4947642;28;20065;-72
2023/05/11 05:12:29;;;;;;;14.93;6.05;;;;;;;;;;4980358;28;20065;-73
2023/05/11 05:14:59;;;;;;;13.90;5.63;;;;;;;;;;5016760;28;20049;-76
2023/05/11 05:17:28;;;;;;;16.50;5.75;;;;;;;;;;4995731;28;20077;-73
2023/05/11 05:19:58;;;;;;;14.95;6.20;;;;;;;;;;4960944;28;20058;-74
2023/05/11 05:22:28;;;;;;;14.00;5.45;;;;;;;;;;4955152;28;20288;-70
2023/05/11 05:24:57;;;;;;;15.85;5.70;;;;;;;;;;4976307;28;20054;-70
2023/05/11 05:27:26;;;;;;;13.48;5.57;;;;;;;;;;4952375;28;20085;-72
2023/05/11 05:29:56;;;;;;;12.80;5.97;;;;;;;;;;4948225;28;20059;-70
2023/05/11 05:32:25;;;;;;;16.50;6.03;;;;;;;;;;4926302;28;20062;-71
2023/05/11 05:34:52;;;;;;;15.23;5.88;;;;;;;;;;4937879;28;20099;-72
2023/05/11 05:37:22;;;;;;;14.45;5.97;;;;;;;;;;4914609;28;20055;-72
2023/05/11 05:39:53;;;;;;;13.32;5.57;;;;;;;;;;4943554;28;20055;-70
2023/05/11 05:42:21;;;;;;;16.88;5.88;;;;;;;;;;4940936;28;20067;-75
2023/05/11 05:44:48;;;;;;;18.52;6.18;;;;;;;;;;4925924;28;20062;-76
2023/05/11 05:47:16;;;;;;;17.15;5.97;;;;;;;;;;4888444;29;20059;-70
2023/05/11 05:49:43;;;;;;;16.75;5.80;;;;;;;;;;4922585;28;20054;-71
2023/05/11 05:52:11;;;;;;;15.93;5.40;;;;;;;;;;4960936;28;20152;-72
2023/05/11 05:54:53;;;;;;;13.38;5.88;;;;;;;;;;4930478;28;20147;-74
2023/05/11 05:57:43;;;;;;;15.25;6.03;;;;;;;;;;4954689;28;20081;-76
2023/05/11 06:00:19;;;;;;;13.88;6.07;;;;;;;;;;4955043;28;20059;-73
2023/05/11 06:02:47;;;;;;;15.20;5.75;;;;;;;;;;4956038;28;20149;-74
2023/05/11 06:05:20;;;;;;;14.07;5.82;;;;;;;;;;4976900;28;20058;-73
2023/05/11 06:07:53;;;;;;;15.30;6.15;;;;;;;;;;4946996;28;20054;-73
2023/05/11 06:10:24;;;;;;;14.15;5.65;;;;;;;;;;4943014;28;20065;-73
2023/05/11 06:13:09;;;;;;;14.82;5.82;;;;;;;;;;4955209;28;20070;-74
2023/05/11 06:15:43;;;;;;;13.77;5.68;;;;;;;;;;4978934;28;20049;-74
2023/05/11 06:18:10;;;;;;;15.57;6.05;;;;;;;;;;4931144;28;20058;-74
2023/05/11 06:26:38;;;;;;;13.32;5.60;;;;;;;;;;4931512;28;20058;-73
2023/05/11 06:29:06;;;;;;;15.60;6.00;;;;;;;;;;4935134;28;20244;-71
2023/05/11 06:31:36;;;;;;;18.38;6.50;;;;;;;;;;4922033;29;20071;-74
2023/05/11 06:37:02;;;;;;;16.00;6.47;;;;;;;;;;5030911;28;20478;-76
2023/05/11 06:39:31;;;;;;;15.25;7.10;;;;;;;;;;5011421;28;20543;-72
2023/05/11 06:42:07;;;;;;;14.57;5.90;;;;;;;;;;4993016;28;20151;-75
2023/05/11 06:44:38;;;;;;;14.98;6.53;;;;;;;;;;4971243;28;20076;-72
2023/05/11 06:47:22;;;;;;;17.73;6.80;;;;;;;;;;4961713;28;20133;-75
2023/05/11 07:02:26;;;;;;;18.42;6.80;;;;;;;;;;4922822;28;20084;-75
2023/05/11 07:04:59;;;;;;;16.05;6.72;;;;;;;;;;4913765;28;20064;-74
2023/05/11 07:07:28;;;;;;;15.88;6.88;;;;;;;;;;4878402;29;20104;-73
2023/05/11 07:14:57;;;;;;;15.48;6.70;;;;;;;;;;4871081;29;20142;-73
2023/05/11 07:17:25;;;;;;;16.02;7.00;;;;;;;;;;4898202;29;20060;-74
2023/05/11 07:19:53;;;;;;;15.80;7.10;;;;;;;;;;4917632;28;20074;-71
2023/05/11 07:22:27;;;;;;;17.98;7.22;;;;;;;;;;4918460;28;20059;-74
2023/05/11 07:24:57;;;;;;;16.25;7.35;;;;;;;;;;4942437;28;20058;-73
2023/05/11 07:27:23;;;;;;;18.08;6.82;;;;;;;;;;4957848;28;20074;-70
2023/05/11 07:34:47;;;;;;;18.90;7.38;;;;;;;;;;4891945;28;20063;-71
2023/05/11 07:37:17;;;;;;;15.25;6.80;;;;;;;;;;4898962;29;20083;-70
2023/05/11 07:39:43;;;;;;;17.60;7.78;;;;;;;;;;4894201;28;20150;-73
2023/05/11 07:42:12;;;;;;;18.02;7.72;;;;;;;;;;4881818;29;20071;-72
2023/05/11 07:44:41;;;;;;;16.55;7.13;;;;;;;;;;4897752;28;20060;-72
2023/05/11 07:47:12;;;;;;;19.73;7.82;;;;;;;;;;4965956;28;20065;-71
2023/05/11 07:49:39;;;;;;;17.50;7.28;;;;;;;;;;4970196;28;20148;-73
2023/05/11 07:52:14;;;;;;;17.05;6.82;;;;;;;;;;4993547;28;20054;-74
2023/05/11 07:54:44;;;;;;;15.60;7.40;;;;;;;;;;4975866;28;20062;-73
2023/05/11 07:57:15;;;;;;;19.30;7.55;;;;;;;;;;4992582;28;20054;-74
2023/05/11 07:59:46;;;;;;;19.27;7.72;;;;;;;;;;4972478;28;20093;-73
2023/05/11 08:02:15;;;;;;;18.80;7.75;;;;;;;;;;4973405;28;20076;-72
2023/05/11 08:04:51;;;;;;;;;;;;;;;;;;4974736;28;20061;-71
2023/05/11 08:07:23;;;;;;;20.08;8.00;;;;;;;;;;4977878;28;20020;-73
2023/05/11 08:09:51;;;;;;;17.08;7.32;;;;;;;;;;4940993;28;20139;-71
2023/05/11 08:12:24;;;;;;;;;;;;;;;;;;4937390;28;20098;-72
2023/05/11 08:14:54;;;;;;;16.25;7.07;;;;;;;;;;4928952;28;20053;-73
2023/05/11 08:17:22;;;;;;;17.48;8.40;;;;;;;;;;4920650;28;20043;-76
2023/05/11 08:34:57;;;;;;;16.88;7.72;;;;;;;;;;5062768;27;20509;-73
2023/05/11 08:37:24;;;;;;;17.35;7.82;;;;;;;;;;5023130;28;20046;-76
2023/05/11 08:39:57;;;;;;;18.80;7.97;;;;;;;;;;5007005;28;20162;-72
2023/05/11 08:45:25;;;;;;;19.30;9.18;;;;;;;;;;5015608;28;20115;-72
2023/05/11 08:47:53;;;;;;;20.17;8.55;;;;;;;;;;5033529;28;20045;-71
2023/05/11 08:50:28;;;;;;;17.77;8.63;;;;;;;;;;5017299;28;20048;-74
2023/05/11 08:52:57;;;;;;;21.52;9.23;;;;;;;;;;5050244;28;20067;-72
2023/05/11 08:55:27;;;;;;;19.30;9.55;;;;;;;;;;5049072;28;20060;-71
2023/05/11 08:57:56;;;;;;;19.77;9.35;;;;;;;;;;5061515;28;20049;-73
2023/05/11 09:00:23;;;;;;;18.42;9.02;;;;;;;;;;5020387;28;20052;-72
2023/05/11 09:02:50;;;;;;;20.58;9.45;;;;;;;;;;5018946;28;20041;-73
2023/05/11 09:05:21;;;;;;;20.58;9.20;;;;;;;;;;4993598;28;20246;-75
2023/05/11 09:07:51;;;;;;;21.17;9.15;;;;;;;;;;4974516;28;20070;-71
2023/05/11 09:10:24;;;;;;;18.98;8.85;;;;;;;;;;4972934;28;20058;-74
2023/05/11 09:12:51;;;;;;;21.13;9.13;;;;;;;;;;5013720;28;20239;-71
2023/05/11 09:15:24;;;;;;;22.63;9.95;;;;;;;;;;4979422;28;20049;-69
2023/05/11 09:17:54;;;;;;;24.58;10.65;;;;;;;;;;4993923;28;20053;-72
2023/05/11 09:20:30;;;;;;;21.70;9.68;;;;;;;;;;4956452;28;20297;-73
2023/05/11 09:22:59;;;;;;;;;;;;;;;;;;4973959;28;20053;-73
2023/05/11 09:25:35;;;;;;;19.70;9.25;;;;;;;;;;4993756;28;20076;-75
2023/05/11 09:28:12;;;;;;;21.92;10.68;;;;;;;;;;4976009;28;20074;-75
2023/05/11 09:30:43;;;;;;;22.92;10.13;;;;;;;;;;4956933;28;20054;-73
2023/05/11 09:33:13;;;;;;;22.83;10.00;;;;;;;;;;5025510;28;20080;-73
2023/05/11 09:35:44;;;;;;;26.63;10.43;;;;;;;;;;5040760;28;20053;-72
2023/05/11 09:38:15;;;;;;;23.00;11.05;;;;;;;;;;5020156;28;20049;-73
2023/05/11 09:41:02;;;;;;;21.15;10.02;;;;;;;;;;4964705;28;20061;-75
2023/05/11 09:43:32;;;;;;;22.45;9.98;;;;;;;;;;4970490;28;20073;-70
2023/05/11 09:46:28;;;;;;;23.63;10.82;;;;;;;;;;4978566;28;20084;-70
2023/05/11 09:49:03;;;;;;;22.38;10.35;;;;;;;;;;4955288;28;20386;-72
2023/05/11 09:51:41;;;;;;;21.60;10.20;;;;;;;;;;4948753;28;20066;-74
2023/05/11 09:54:22;;;;;;;21.45;10.35;;;;;;;;;;4962025;28;20046;-72
2023/05/11 09:56:55;;;;;;;21.08;10.55;;;;;;;;;;4960573;28;20137;-73
2023/05/11 09:59:42;;;;;;;19.23;9.60;;;;;;;;;;4933804;28;20043;-73
2023/05/11 10:15:47;;;;;;;20.80;9.95;;;;;;;;;;5064678;27;20433;-74
2023/05/11 10:18:14;;;;;;;20.38;9.52;;;;;;;;;;4945608;28;20074;-73
2023/05/11 10:20:45;;;;;;;22.38;10.35;;;;;;;;;;4922878;28;20068;-74
2023/05/11 10:23:14;;;;;;;21.55;10.70;;;;;;;;;;4964604;28;20090;-70
2023/05/11 10:25:49;;;;;;;21.88;10.07;;;;;;;;;;4943803;28;20058;-75
2023/05/11 10:28:20;;;;;;;18.75;9.50;;;;;;;;;;4952977;28;20051;-74
2023/05/11 10:30:48;;;;;;;23.17;9.82;;;;;;;;;;4927340;28;20055;-73
2023/05/11 10:33:19;;;;;;;;;;;;;;;;;;4962361;28;20054;-73
2023/05/11 10:35:46;;;;;;;22.15;9.98;;;;;;;;;;4975930;28;20016;-74
2023/05/11 10:38:15;;;;;;;18.42;9.30;;;;;;;;;;4981148;28;20042;-71
2023/05/11 10:40:41;;;;;;;;;;;;;;;;;;4973847;28;20129;-75
2023/05/11 10:43:19;;;;;;;18.65;8.90;;;;;;;;;;4959913;28;19925;-76
2023/05/11 10:45:52;;;;;;;21.75;10.40;;;;;;;;;;4973133;28;20062;-70
2023/05/11 10:48:43;;;;;;;20.73;9.93;;;;;;;;;;4987408;28;20058;-72
2023/05/11 10:51:21;;;;;;;22.15;9.77;;;;;;;;;;4971229;28;20104;-75
2023/05/11 10:53:57;;;;;;;20.23;10.43;;;;;;;;;;4958182;28;20061;-71
2023/05/11 10:56:30;;;;;;;23.17;10.18;;;;;;;;;;4935435;28;20055;-75
2023/05/11 10:59:10;;;;;;;19.98;10.13;;;;;;;;;;4932157;28;20063;-73
2023/05/11 11:01:44;;;;;;;20.23;9.63;;;;;;;;;;4877012;29;20060;-71
2023/05/11 11:04:12;;;;;;;17.98;9.10;;;;;;;;;;4882152;29;20282;-78
2023/05/11 11:07:16;;;;;;;19.20;8.95;;;;;;;;;;4904368;28;20075;-78
2023/05/11 11:09:52;;;;;;;20.67;9.70;;;;;;;;;;4904200;29;20052;-73
2023/05/11 11:17:26;;;;;;;21.88;9.52;;;;;;;;;;4849864;29;20061;-76
2023/05/11 11:19:53;;;;;;;22.83;10.10;;;;;;;;;;4863314;29;20065;-73
2023/05/11 11:22:40;;;;;;;20.05;9.40;;;;;;;;;;4855462;29;20156;-74
2023/05/11 11:25:09;;;;;;;18.25;9.38;;;;;;;;;;4874588;29;20052;-72
2023/05/11 11:27:58;;;;;;;19.50;9.25;;;;;;;;;;4866527;29;20056;-72
2023/05/11 11:30:29;;;;;;;18.33;9.55;;;;;;;;;;4873440;29;20065;-74
2023/05/11 11:33:17;;;;;;;17.95;8.70;;;;;;;;;;4896758;28;20175;-73
2023/05/11 11:35:47;;;;;;;18.52;9.07;;;;;;;;;;4973824;28;20051;-73
2023/05/11 11:38:17;;;;;;;23.02;9.55;;;;;;;;;;4918510;28;20066;-74
2023/05/11 11:40:51;;;;;;;19.50;9.27;;;;;;;;;;4926232;28;20051;-73
2023/05/11 11:43:21;;;;;;;18.92;9.30;;;;;;;;;;4914852;28;20223;-73
2023/05/11 11:45:52;;;;;;;16.75;8.93;;;;;;;;;;4925383;28;20054;-73
2023/05/11 11:48:35;;;;;;;19.80;9.57;;;;;;;;;;4923061;29;20070;-73
2023/05/11 11:51:05;;;;;;;18.38;9.18;;;;;;;;;;4916066;28;20056;-74
2023/05/11 11:54:11;;;;;;;20.23;9.52;;;;;;;;;;4929653;28;20066;-76
2023/05/11 11:56:47;;;;;;;20.02;9.82;;;;;;;;;;4936442;28;20231;-74
2023/05/11 11:59:19;;;;;;;;;;;;;;;;;;4972989;28;20062;-76
2023/05/11 12:01:45;;;;;;;20.42;9.43;;;;;;;;;;4969589;28;19925;-75
2023/05/11 12:04:42;;;;;;;21.83;9.52;;;;;;;;;;4984035;28;20070;-74
2023/05/11 12:07:17;;;;;;;21.92;9.30;;;;;;;;;;4993584;28;20062;-77
2023/05/11 12:09:45;;;;;;;21.00;10.18;;;;;;;;;;4995537;28;20069;-74
2023/05/11 12:12:15;;;;;;;21.38;9.98;;;;;;;;;;4950216;28;20051;-74
2023/05/11 12:14:47;;;;;;;19.67;10.27;;;;;;;;;;4907139;29;20065;-75
2023/05/11 12:17:15;;;;;;;22.50;10.25;;;;;;;;;;4913075;29;20066;-73
2023/05/11 12:19:43;;;;;;;19.60;9.83;;;;;;;;;;4937006;28;20055;-75
2023/05/11 12:27:27;;;;;;;21.13;10.63;;;;;;;;;;5052624;27;20431;-76
2023/05/11 12:29:58;;;;;;;20.05;9.52;;;;;;;;;;5048965;28;20044;-75
2023/05/11 12:32:25;;;;;;;18.55;9.40;;;;;;;;;;4970116;28;20166;-76
2023/05/11 12:35:01;;;;;;;19.53;10.10;;;;;;;;;;4945336;28;20061;-76
2023/05/11 12:55:02;;;;;;;15.43;8.18;;;;;;;;;;5053317;27;20507;-82
2023/05/11 12:57:43;;;;;;;18.85;9.05;;;;;;;;;;4981447;28;20050;-79
2023/05/11 13:00:14;;;;;;;17.95;8.60;;;;;;;;;;4971460;28;20054;-80
2023/05/11 13:02:45;;;;;;;19.00;8.98;;;;;;;;;;4920146;28;20064;-83
2023/05/11 13:15:49;;;;;;;15.48;8.07;;;;;;;;;;5054071;27;1463878;-82
2023/05/11 13:18:20;;;;;;;16.23;8.07;;;;;;;;;;4988793;28;20051;-81
2023/05/11 13:21:04;;;;;;;13.88;7.20;;;;;;;;;;4946952;28;20065;-78
2023/05/11 13:23:37;;;;;;;15.20;7.28;;;;;;;;;;4944276;28;20161;-82
2023/05/11 13:26:07;;;;;;;20.17;8.88;;;;;;;;;;4952580;28;20074;-81
2023/05/11 13:46:35;;;;;;;14.10;7.07;;;;;;;;;;5007763;27;20457;-78
2023/05/11 13:49:05;;;;;;;;;;;;;;;;;;4939440;28;20074;-84
2023/05/11 13:51:43;;;;;;;13.27;6.68;;;;;;;;;;4932350;28;19926;-84
2023/05/11 14:17:25;;;;;;;15.98;6.00;;;;;;;;;;6076595;22;4651331;-82
2023/05/11 14:20:04;;;;;;;11.93;5.95;;;;;;;;;;6155895;23;20167;-81
2023/05/11 14:22:34;;;;;;;12.48;5.85;;;;;;;;;;6138160;23;20025;-83
2023/05/11 14:25:10;;;;;;;12.27;6.15;;;;;;;;;;6159581;23;20028;-78
2023/05/11 14:37:53;;;;;;;10.73;5.72;;;;;;;;;;5033825;27;20423;-73
2023/05/11 14:40:24;;;;;;;12.43;6.20;;;;;;;;;;4979702;28;20160;-74
2023/05/11 14:42:51;;;;;;;12.52;5.68;;;;;;;;;;4971024;28;20054;-74
2023/05/11 14:45:20;;;;;;;11.60;5.70;;;;;;;;;;4943206;28;20050;-77
2023/05/11 14:47:47;;;;;;;12.52;5.43;;;;;;;;;;4943910;28;20321;-72
2023/05/11 14:50:17;;;;;;;11.20;5.57;;;;;;;;;;4943768;28;20087;-76
2023/05/11 14:52:44;;;;;;;11.98;5.60;;;;;;;;;;4927238;28;20122;-74
2023/05/11 15:02:54;;;;;;;11.57;6.22;;;;;;;;;;5085054;27;20458;-72
2023/05/11 15:05:34;;;;;;;9.90;5.32;;;;;;;;;;5061279;28;20055;-74
2023/05/11 15:08:01;;;;;;;11.85;5.63;;;;;;;;;;5050711;28;20051;-74
2023/05/11 15:10:30;;;;;;;10.77;5.28;;;;;;;;;;5027341;28;20053;-73
2023/05/11 15:12:57;;;;;;;11.15;5.22;;;;;;;;;;5027064;28;20128;-76
2023/05/11 15:15:24;;;;;;;11.45;5.85;;;;;;;;;;5017118;28;20134;-75
2023/05/11 15:17:51;;;;;;;11.02;5.57;;;;;;;;;;5018864;28;20060;-76
2023/05/11 15:20:22;;;;;;;10.50;5.03;;;;;;;;;;5056456;28;20057;-74
2023/05/11 15:22:49;;;;;;;10.40;5.25;;;;;;;;;;5048589;28;20116;-76
2023/05/11 15:25:18;;;;;;;10.50;4.57;;;;;;;;;;5053626;28;20151;-77
2023/05/11 15:27:49;;;;;;;9.80;4.88;;;;;;;;;;5046190;28;20056;-76
2023/05/11 15:30:27;;;;;;;8.93;4.28;;;;;;;;;;5046412;28;20044;-75
2023/05/11 15:32:59;;;;;;;12.73;5.13;;;;;;;;;;5070220;28;20044;-76
2023/05/11 15:35:27;;;;;;;13.15;5.30;;;;;;;;;;5022340;28;20060;-75
2023/05/11 15:37:54;;;;;;;9.55;5.03;;;;;;;;;;5032016;28;20102;-75
2023/05/11 15:40:21;;;;;;;12.70;4.65;;;;;;;;;;5044578;28;20149;-73
2023/05/11 15:42:51;;;;;;;8.55;4.55;;;;;;;;;;5052333;28;20136;-73
2023/05/11 15:45:17;;;;;;;9.00;4.40;;;;;;;;;;5036455;28;20068;-76
2023/05/11 15:47:50;;;;;;;11.52;4.38;;;;;;;;;;5019704;28;20064;-73
2023/05/11 15:50:25;;;;;;;7.90;4.47;;;;;;;;;;5019410;28;20057;-74
2023/05/11 15:52:55;;;;;;;12.23;4.45;;;;;;;;;;5033433;28;20053;-72
2023/05/11 15:55:23;;;;;;;8.70;4.32;;;;;;;;;;5056972;28;20044;-70
2023/05/11 15:57:53;;;;;;;10.48;5.18;;;;;;;;;;5068729;28;20078;-71
2023/05/11 16:00:22;;;;;;;12.15;4.72;;;;;;;;;;5061140;28;20077;-73
2023/05/11 16:02:52;;;;;;;10.32;4.22;;;;;;;;;;5066147;28;20048;-70
2023/05/11 16:05:25;;;;;;;9.13;4.53;;;;;;;;;;5061881;28;20051;-71
2023/05/11 16:07:56;;;;;;;9.13;4.10;;;;;;;;;;5073924;28;20052;-71
2023/05/11 16:10:28;;;;;;;9.45;4.40;;;;;;;;;;5051000;28;20059;-72
2023/05/11 16:13:07;;;;;;;7.68;4.03;;;;;;;;;;5047715;28;20155;-73
2023/05/11 16:15:33;;;;;;;8.30;4.28;;;;;;;;;;5023531;28;20060;-71
2023/05/11 16:18:00;;;;;;;8.60;4.15;;;;;;;;;;5029693;28;20048;-72
2023/05/11 16:20:33;;;;;;;9.77;4.30;;;;;;;;;;5019121;28;20135;-74
2023/05/11 16:23:06;;;;;;;7.30;3.50;;;;;;;;;;5038450;28;20344;-77
2023/05/11 16:38:41;;;;;;;6.20;3.05;;;;;;;;;;5043150;27;20718;-80
2023/05/11 16:41:09;;;;;;;7.22;3.28;;;;;;;;;;4984024;28;20054;-79
2023/05/11 16:43:42;;;;;;;5.15;2.60;;;;;;;;;;4958265;28;20101;-79
2023/05/11 16:46:10;;;;;;;6.35;3.20;;;;;;;;;;4936613;28;20065;-80
2023/05/11 17:09:11;;;;;;;6.93;2.93;;;;;;;;;;6051565;22;4109328;-79
2023/05/11 17:11:38;;;;;;;5.55;2.40;;;;;;;;;;6098104;23;20321;-83
2023/05/11 17:14:05;;;;;;;5.40;2.45;;;;;;;;;;6079580;23;20026;-81
2023/05/11 17:39:53;;;;;;;5.35;1.95;;;;;;;;;;6143803;22;1516873;-81
2023/05/11 17:42:23;;;;;;;4.28;1.98;;;;;;;;;;6135460;23;20029;-80
2023/05/11 17:45:07;;;;;;;4.82;2.40;;;;;;;;;;6144444;23;20029;-80
2023/05/11 18:16:14;;;;;;;5.22;2.47;;;;;;;;;;6236456;22;1769918;-81
2023/05/11 18:18:51;;;;;;;4.15;1.95;;;;;;;;;;6137330;23;20080;-80
2023/05/11 18:48:21;;;;;;;4.22;2.28;;;;;;;;;;5062565;28;20050;-80
2023/05/11 18:50:55;;;;;;;5.68;2.35;;;;;;;;;;5027102;28;20053;-81
2023/05/11 18:53:21;;;;;;;5.00;2.30;;;;;;;;;;5026679;28;20064;-82
2023/05/11 18:55:53;;;;;;;5.13;2.17;;;;;;;;;;5016522;28;20057;-82
2023/05/11 19:03:31;;;;;;;21.25;8.38;;;;;;;;;;5001479;28;20383;-75
2023/05/11 19:06:01;;;;;;;19.05;6.15;;;;;;;;;;5045587;28;20052;-82
2023/05/11 19:26:28;;;;;;;7.60;3.80;;;;;;;;;;4978713;27;3719526;-74
2023/05/11 19:28:55;;;;;;;10.73;4.43;;;;;;;;;;4970579;28;20050;-73
2023/05/11 19:31:24;;;;;;;12.27;4.30;;;;;;;;;;4945171;28;20069;-76
2023/05/11 19:36:31;;;;;;;12.63;4.78;;;;;;;;;;4920886;28;20051;-72
2023/05/11 19:38:57;;;;;;;11.90;4.53;;;;;;;;;;4956099;28;20253;-73
2023/05/11 19:41:27;;;;;;;8.20;4.03;;;;;;;;;;4965722;28;20046;-73
2023/05/11 19:43:53;;;;;;;8.38;3.92;;;;;;;;;;4995911;28;20048;-73
2023/05/11 19:46:24;;;;;;;10.60;3.80;;;;;;;;;;5026145;28;20054;-76
2023/05/11 19:48:52;;;;;;;7.45;3.72;;;;;;;;;;4970586;28;20244;-75
2023/05/11 19:51:20;;;;;;;8.35;3.95;;;;;;;;;;4950668;28;20051;-77
2023/05/11 19:53:47;;;;;;;10.10;3.67;;;;;;;;;;4915424;28;20073;-74
2023/05/11 19:56:18;;;;;;;6.85;3.35;;;;;;;;;;4941324;28;20054;-74
2023/05/11 19:58:46;;;;;;;6.65;3.47;;;;;;;;;;4937422;28;20063;-75
2023/05/11 20:11:47;;;;;;;7.82;3.70;;;;;;;;;;5030018;28;20492;-77
2023/05/11 20:14:14;;;;;;;;;;;;;;;;;;4994347;28;20046;-74
2023/05/11 20:16:40;;;;;;;9.40;3.35;;;;;;;;;;4961304;28;19926;-78
2023/05/11 20:19:08;;;;;;;8.32;3.67;;;;;;;;;;4983994;28;20053;-76
2023/05/11 20:21:35;;;;;;;7.80;3.88;;;;;;;;;;5007805;28;20099;-75
2023/05/11 20:24:02;;;;;;;6.95;3.53;;;;;;;;;;4974663;28;20129;-74
2023/05/11 20:26:29;;;;;;;7.93;3.25;;;;;;;;;;4984497;28;20049;-78
2023/05/11 20:47:08;;;;;;;8.27;3.40;;;;;;;;;;6207428;22;2501746;-79
2023/05/11 20:49:43;;;;;;;6.47;3.22;;;;;;;;;;6132228;23;20018;-83
2023/05/11 20:52:12;;;;;;;6.70;2.95;;;;;;;;;;6114412;23;20048;-84
2023/05/11 20:54:39;;;;;;;6.20;3.33;;;;;;;;;;6120282;23;20186;-86
2023/05/11 20:57:07;;;;;;;6.20;2.88;;;;;;;;;;6147125;23;20032;-85
2023/05/11 21:05:00;;;;;;;7.03;3.08;;;;;;;;;;1297854;22;20706;-83
2023/05/11 21:07:27;;;;;;;8.30;3.03;;;;;;;;;;5022031;28;20058;-79
2023/05/11 21:09:57;;;;;;;5.63;2.75;;;;;;;;;;4955449;28;20125;-85
2023/05/11 21:12:27;;;;;;;6.05;2.95;;;;;;;;;;4926382;28;20070;-80
2023/05/11 21:14:55;;;;;;;6.18;3.40;;;;;;;;;;4917125;28;20094;-80
2023/05/11 21:17:22;;;;;;;6.75;3.38;;;;;;;;;;4938364;28;20066;-84
2023/05/11 21:37:49;;;;;;;8.98;2.85;;;;;;;;;;5062392;27;20434;-72
2023/05/11 21:40:16;;;;;;;5.30;2.58;;;;;;;;;;5035857;28;20056;-73
2023/05/11 21:42:44;;;;;;;5.40;2.63;;;;;;;;;;5016561;28;20056;-72
2023/05/11 21:45:11;;;;;;;5.95;2.80;;;;;;;;;;5018532;28;20043;-73
2023/05/11 21:47:38;;;;;;;6.03;3.05;;;;;;;;;;5035490;28;20057;-72
2023/05/11 21:50:09;;;;;;;6.05;2.63;;;;;;;;;;5019309;28;20054;-72
2023/05/11 21:52:36;;;;;;;5.63;2.67;;;;;;;;;;5018460;28;20160;-73
2023/05/11 21:55:10;;;;;;;5.40;2.60;;;;;;;;;;5028732;28;20238;-72
2023/05/11 21:57:37;;;;;;;6.45;2.97;;;;;;;;;;5033690;28;20053;-75
2023/05/11 22:00:04;;;;;;;5.55;2.72;;;;;;;;;;4986682;28;20042;-75
2023/05/11 22:02:32;;;;;;;6.65;2.90;;;;;;;;;;4963998;28;20054;-75
2023/05/11 22:05:14;;;;;;;6.53;2.60;;;;;;;;;;4975206;28;20089;-75
2023/05/11 22:16:02;;;;;;;5.88;2.58;;;;;;;;;;5030071;28;20535;-72
2023/05/11 22:18:35;;;;;;;5.38;2.65;;;;;;;;;;4968690;28;20050;-72
2023/05/11 22:21:16;;;;;;;6.65;2.72;;;;;;;;;;4963805;28;20045;-73
2023/05/11 22:23:43;;;;;;;5.35;2.60;;;;;;;;;;4951886;28;20063;-72
2023/05/11 22:36:34;;;;;;;5.38;2.22;;;;;;;;;;5046240;27;20143;-72
2023/05/11 22:39:10;;;;;;;7.13;2.60;;;;;;;;;;4982496;28;20058;-72
2023/05/11 22:41:38;;;;;;;6.13;2.30;;;;;;;;;;4941580;28;20069;-72
2023/05/11 22:44:05;;;;;;;;;;;;;;;;;;4943267;28;20059;-73
2023/05/11 22:46:40;;;;;;;4.07;2.10;;;;;;;;;;4886640;29;20082;-74
2023/05/11 22:49:10;;;;;;;6.27;2.40;;;;;;;;;;4896875;29;20062;-73
2023/05/11 23:03:15;;;;;;;6.20;2.50;;;;;;;;;;5102853;27;20455;-73
2023/05/11 23:05:47;;;;;;;3.65;2.03;;;;;;;;;;4981680;28;20062;-73
2023/05/11 23:08:25;;;;;;;5.15;2.33;;;;;;;;;;4963539;28;20098;-72
2023/05/11 23:10:55;;;;;;;5.90;2.67;;;;;;;;;;4946665;28;20074;-72
2023/05/11 23:13:25;;;;;;;5.20;2.50;;;;;;;;;;4947277;28;20070;-73
2023/05/11 23:15:58;;;;;;;5.22;2.47;;;;;;;;;;4932370;28;20985;-72
2023/05/11 23:18:40;;;;;;;4.75;2.33;;;;;;;;;;4924441;28;20062;-72
2023/05/11 23:33:55;;;;;;;5.55;2.33;;;;;;;;;;5055478;27;20487;-73
2023/05/11 23:36:22;;;;;;;7.50;2.50;;;;;;;;;;4960650;28;20052;-73
2023/05/11 23:38:53;;;;;;;6.00;3.00;;;;;;;;;;4980000;28;20132;-74
2023/05/11 23:41:20;;;;;;;5.20;2.47;;;;;;;;;;4961249;28;20046;-72
2023/05/11 23:43:47;;;;;;;5.60;2.78;;;;;;;;;;4954443;28;20061;-73
2023/05/11 23:46:14;;;;;;;4.88;2.58;;;;;;;;;;4908500;28;20055;-74
2023/05/11 23:48:40;;;;;;;5.70;2.95;;;;;;;;;;4927657;28;20321;-73